createdAt,value
2018-01-29T00:01:40.307Z,75.50
2018-01-29T00:04:07.771Z,75.49
2018-01-29T00:06:35.241Z,75.66
2018-01-29T00:09:02.863Z,75.89
2018-01-29T00:11:30.288Z,75.55
2018-01-29T00:13:57.754Z,75.86
2018-01-29T00:16:25.197Z,76.22
2018-01-29T00:18:52.693Z,76.13
2018-01-29T00:21:20.162Z,76.11
2018-01-29T00:23:47.726Z,76.45
2018-01-29T00:26:15.193Z,76.18
2018-01-29T00:28:42.652Z,76.20
2018-01-29T00:31:10.136Z,76.20
2018-01-29T00:33:37.618Z,76.06
2018-01-29T00:36:05.099Z,76.49
2018-01-29T00:38:32.553Z,76.40
2018-01-29T00:41:00.026Z,76.89
2018-01-29T00:43:27.473Z,76.79
2018-01-29T00:45:54.962Z,76.84
2018-01-29T00:48:22.418Z,76.84
2018-01-29T00:50:49.868Z,76.98
2018-01-29T00:53:17.316Z,76.92
2018-01-29T00:55:44.841Z,77.16
2018-01-29T00:58:12.325Z,76.96
2018-01-29T01:00:39.884Z,77.00
2018-01-29T01:03:07.333Z,77.49
2018-01-29T01:05:34.828Z,77.48
2018-01-29T01:08:02.288Z,77.05
2018-01-29T01:10:29.727Z,77.18
2018-01-29T01:12:57.251Z,77.35
2018-01-29T01:15:24.705Z,76.94
2018-01-29T01:17:52.166Z,76.98
2018-01-29T01:20:19.707Z,76.86
2018-01-29T01:22:47.180Z,76.90
2018-01-29T01:25:14.625Z,76.93
2018-01-29T01:27:42.082Z,76.94
2018-01-29T01:30:09.558Z,77.25
2018-01-29T01:32:37.056Z,77.41
2018-01-29T01:35:04.498Z,77.18
2018-01-29T01:37:31.946Z,77.08
2018-01-29T01:39:59.395Z,77.14
2018-01-29T01:42:26.845Z,77.16
2018-01-29T01:44:54.371Z,77.03
2018-01-29T01:47:21.826Z,76.84
2018-01-29T01:49:49.280Z,77.02
2018-01-29T01:52:16.734Z,77.11
2018-01-29T01:54:44.201Z,77.06
2018-01-29T01:57:11.723Z,76.74
2018-01-29T01:59:39.196Z,77.08
2018-01-29T02:02:07.076Z,76.97
2018-01-29T02:04:34.535Z,76.86
2018-01-29T02:07:02.012Z,76.95
2018-01-29T02:09:29.465Z,76.88
2018-01-29T02:11:56.920Z,77.33
2018-01-29T02:14:24.381Z,77.41
2018-01-29T02:16:51.845Z,76.97
2018-01-29T02:19:19.369Z,77.41
2018-01-29T02:21:46.933Z,76.98
2018-01-29T02:24:14.390Z,77.01
2018-01-29T02:26:41.875Z,76.92
2018-01-29T02:29:09.325Z,77.12
2018-01-29T02:31:36.875Z,77.16
2018-01-29T02:34:04.339Z,77.22
2018-01-29T02:36:31.781Z,77.60
2018-01-29T02:38:59.244Z,77.27
2018-01-29T02:41:26.710Z,77.39
2018-01-29T02:43:54.165Z,77.34
2018-01-29T02:46:21.631Z,77.30
2018-01-29T02:48:49.126Z,77.21
2018-01-29T02:51:16.568Z,77.48
2018-01-29T02:53:44.036Z,77.74
2018-01-29T02:56:11.485Z,78.27
2018-01-29T02:58:38.953Z,78.12
2018-01-29T03:01:06.494Z,78.08
2018-01-29T03:03:33.969Z,78.15
2018-01-29T03:06:01.486Z,78.23
2018-01-29T03:08:28.988Z,78.10
2018-01-29T03:10:56.453Z,78.48
2018-01-29T03:13:23.952Z,78.30
2018-01-29T03:15:51.489Z,78.29
2018-01-29T03:18:18.961Z,78.04
2018-01-29T03:20:46.420Z,78.07
2018-01-29T03:23:13.872Z,78.19
2018-01-29T03:25:41.332Z,78.27
2018-01-29T03:28:08.784Z,78.10
2018-01-29T03:30:36.256Z,78.30
2018-01-29T03:33:03.789Z,78.36
2018-01-29T03:35:31.358Z,77.96
2018-01-29T03:37:58.807Z,77.98
2018-01-29T03:40:26.277Z,78.08
2018-01-29T03:42:53.773Z,77.80
2018-01-29T03:45:21.240Z,77.87
2018-01-29T03:47:48.709Z,77.80
2018-01-29T03:50:16.174Z,77.49
2018-01-29T03:52:43.660Z,77.51
2018-01-29T03:55:11.127Z,78.12
2018-01-29T03:57:38.852Z,77.70
2018-01-29T04:00:06.376Z,77.53
2018-01-29T04:02:33.840Z,77.65
2018-01-29T04:05:01.310Z,77.27
2018-01-29T04:07:28.773Z,77.06
2018-01-29T04:09:56.253Z,77.58
2018-01-29T04:12:23.832Z,77.45
2018-01-29T04:14:51.310Z,77.30
2018-01-29T04:17:18.885Z,77.17
2018-01-29T04:19:46.441Z,77.44
2018-01-29T04:22:13.894Z,77.31
2018-01-29T04:24:41.365Z,77.02
2018-01-29T04:27:08.862Z,76.72
2018-01-29T04:29:36.428Z,76.67
2018-01-29T04:32:03.877Z,76.92
2018-01-29T04:34:31.332Z,77.20
2018-01-29T04:36:58.849Z,76.82
2018-01-29T04:39:26.322Z,76.80
2018-01-29T04:41:53.765Z,76.83
2018-01-29T04:44:21.995Z,76.63
2018-01-29T04:46:49.441Z,76.52
2018-01-29T04:49:16.912Z,76.63
2018-01-29T04:51:44.367Z,76.79
2018-01-29T04:54:11.889Z,76.70
2018-01-29T04:56:39.430Z,76.72
2018-01-29T04:59:06.895Z,76.47
2018-01-29T05:01:34.369Z,76.78
2018-01-29T05:04:01.924Z,76.86
2018-01-29T05:06:29.415Z,76.73
2018-01-29T05:08:56.986Z,76.54
2018-01-29T05:11:24.469Z,76.52
2018-01-29T05:13:52.017Z,76.26
2018-01-29T05:16:19.492Z,76.26
2018-01-29T05:18:46.992Z,76.30
2018-01-29T05:21:14.803Z,76.69
2018-01-29T05:23:42.338Z,76.54
2018-01-29T05:26:09.901Z,76.50
2018-01-29T05:28:37.467Z,76.50
2018-01-29T05:31:05.025Z,76.48
2018-01-29T05:33:32.559Z,76.56
2018-01-29T05:36:05.611Z,76.45
2018-01-29T05:38:33.126Z,76.32
2018-01-29T05:41:00.644Z,76.24
2018-01-29T05:43:28.109Z,76.25
2018-01-29T05:45:55.549Z,76.25
2018-01-29T05:48:23.034Z,76.43
2018-01-29T05:50:50.494Z,76.44
2018-01-29T05:53:18.013Z,76.12
2018-01-29T05:55:45.481Z,76.23
2018-01-29T05:58:12.940Z,76.97
2018-01-29T06:00:40.417Z,76.86
2018-01-29T06:03:07.906Z,77.29
2018-01-29T06:05:35.393Z,77.36
2018-01-29T06:08:02.845Z,77.82
2018-01-29T06:10:30.322Z,77.99
2018-01-29T06:12:57.768Z,77.64
2018-01-29T06:15:25.333Z,77.89
2018-01-29T06:17:52.812Z,78.02
2018-01-29T06:20:20.268Z,78.15
2018-01-29T06:22:47.729Z,78.02
2018-01-29T06:25:15.421Z,78.32
2018-01-29T06:27:42.898Z,78.06
2018-01-29T06:30:10.481Z,77.94
2018-01-29T06:32:37.925Z,77.66
2018-01-29T06:35:05.522Z,77.15
2018-01-29T06:37:33.016Z,77.26
2018-01-29T06:40:00.565Z,77.24
2018-01-29T06:42:28.013Z,76.98
2018-01-29T06:44:55.459Z,76.91
2018-01-29T06:47:22.966Z,76.91
2018-01-29T06:49:50.426Z,77.32
2018-01-29T06:52:17.904Z,77.12
2018-01-29T06:54:45.385Z,77.06
2018-01-29T06:57:12.846Z,77.08
2018-01-29T06:59:40.314Z,77.31
2018-01-29T07:02:07.834Z,76.96
2018-01-29T07:04:35.364Z,76.71
2018-01-29T07:07:02.886Z,76.92
2018-01-29T07:09:30.401Z,76.59
2018-01-29T07:11:57.877Z,76.07
2018-01-29T07:14:25.352Z,76.23
2018-01-29T07:16:52.821Z,76.09
2018-01-29T07:19:20.296Z,75.92
2018-01-29T07:21:47.745Z,76.11
2018-01-29T07:24:15.211Z,76.26
2018-01-29T07:26:42.656Z,76.31
2018-01-29T07:29:10.178Z,76.23
2018-01-29T07:31:37.653Z,75.88
2018-01-29T07:34:05.121Z,75.56
2018-01-29T07:36:32.573Z,75.77
2018-01-29T07:39:00.053Z,75.63
2018-01-29T07:41:27.514Z,75.41
2018-01-29T07:43:54.976Z,75.40
2018-01-29T07:46:22.478Z,74.99
2018-01-29T07:48:50.044Z,75.16
2018-01-29T07:51:17.517Z,74.85
2018-01-29T07:53:44.993Z,74.63
2018-01-29T07:56:12.509Z,74.53
2018-01-29T07:58:39.991Z,74.58
2018-01-29T08:01:07.512Z,74.20
2018-01-29T08:03:34.991Z,74.24
2018-01-29T08:06:02.464Z,73.83
2018-01-29T08:08:29.933Z,73.68
2018-01-29T08:10:57.406Z,73.60
2018-01-29T08:13:24.962Z,72.91
2018-01-29T08:15:53.251Z,73.38
2018-01-29T08:18:20.807Z,72.34
2018-01-29T08:20:48.312Z,71.14
2018-01-29T08:23:15.791Z,70.57
2018-01-29T08:25:43.287Z,69.78
2018-01-29T08:28:10.782Z,69.81
2018-01-29T08:30:38.284Z,67.37
2018-01-29T08:33:05.768Z,66.58
2018-01-29T08:35:33.327Z,67.86
2018-01-29T08:38:00.790Z,68.47
2018-01-29T08:40:28.257Z,68.91
2018-01-29T08:42:55.763Z,70.49
2018-01-29T08:45:23.251Z,71.40
2018-01-29T08:47:50.769Z,70.81
2018-01-29T08:50:18.287Z,71.46
2018-01-29T08:52:45.819Z,71.40
2018-01-29T08:55:13.377Z,71.91
2018-01-29T08:57:40.761Z,71.86
2018-01-29T09:00:08.231Z,72.21
2018-01-29T09:02:35.814Z,72.00
2018-01-29T09:05:03.264Z,71.76
2018-01-29T09:07:30.793Z,71.68
2018-01-29T09:09:58.317Z,71.67
2018-01-29T09:12:25.881Z,71.59
2018-01-29T09:14:53.473Z,71.45
2018-01-29T09:17:20.968Z,70.99
2018-01-29T09:19:48.505Z,71.09
2018-01-29T09:22:16.014Z,70.51
2018-01-29T09:24:43.481Z,70.21
2018-01-29T09:27:10.950Z,69.77
2018-01-29T09:29:38.462Z,69.68
2018-01-29T09:32:05.944Z,70.35
2018-01-29T09:34:33.457Z,69.26
2018-01-29T09:37:00.926Z,69.12
2018-01-29T09:39:28.418Z,69.67
2018-01-29T09:41:55.870Z,69.33
2018-01-29T09:44:23.424Z,69.08
2018-01-29T09:46:50.900Z,69.27
2018-01-29T09:49:18.390Z,69.73
2018-01-29T09:51:45.869Z,70.12
2018-01-29T09:54:13.341Z,69.82
2018-01-29T09:56:40.819Z,69.62
2018-01-29T09:59:08.290Z,69.71
2018-01-29T10:01:35.821Z,69.87
2018-01-29T10:04:03.381Z,69.67
2018-01-29T10:06:30.950Z,70.47
2018-01-29T10:08:58.405Z,70.15
2018-01-29T10:11:25.866Z,70.49
2018-01-29T10:13:53.318Z,70.19
2018-01-29T10:16:20.781Z,70.41
2018-01-29T10:18:48.239Z,70.84
2018-01-29T10:21:15.722Z,70.44
2018-01-29T10:23:43.194Z,70.82
2018-01-29T10:26:10.644Z,70.64
2018-01-29T10:28:38.131Z,70.70
2018-01-29T10:31:05.607Z,70.83
2018-01-29T10:33:33.129Z,70.08
2018-01-29T10:36:00.624Z,70.03
2018-01-29T10:38:28.174Z,69.96
2018-01-29T10:40:55.649Z,69.32
2018-01-29T10:43:23.107Z,69.30
2018-01-29T10:45:50.576Z,69.17
2018-01-29T10:48:18.185Z,69.50
2018-01-29T10:50:45.677Z,69.59
2018-01-29T10:53:13.135Z,68.79
2018-01-29T10:55:40.603Z,69.10
2018-01-29T10:58:08.049Z,69.43
2018-01-29T11:00:41.244Z,69.73
2018-01-29T11:03:08.709Z,69.52
2018-01-29T11:05:36.184Z,69.70
2018-01-29T11:08:03.635Z,69.69
2018-01-29T11:10:31.097Z,69.49
2018-01-29T11:12:58.593Z,69.82
2018-01-29T11:15:26.091Z,69.35
2018-01-29T11:17:53.581Z,69.44
2018-01-29T11:20:21.070Z,69.01
2018-01-29T11:22:48.609Z,68.95
2018-01-29T11:25:16.059Z,68.90
2018-01-29T11:27:43.525Z,68.92
2018-01-29T11:30:10.996Z,68.93
2018-01-29T11:32:38.463Z,68.38
2018-01-29T11:35:05.918Z,68.59
2018-01-29T11:37:33.379Z,68.41
2018-01-29T11:40:00.829Z,68.46
2018-01-29T11:42:28.301Z,68.87
2018-01-29T11:44:55.825Z,68.25
2018-01-29T11:47:23.295Z,68.51
2018-01-29T11:49:50.761Z,68.52
2018-01-29T11:52:18.321Z,68.68
2018-01-29T11:54:45.777Z,68.29
2018-01-29T11:57:13.271Z,68.72
2018-01-29T11:59:40.753Z,68.88
2018-01-29T12:02:08.226Z,68.87
2018-01-29T12:04:35.670Z,68.30
2018-01-29T12:07:03.144Z,68.06
2018-01-29T12:09:30.604Z,68.10
2018-01-29T12:11:58.081Z,68.56
2018-01-29T12:14:25.543Z,68.65
2018-01-29T12:16:53.008Z,68.70
2018-01-29T12:19:20.523Z,68.54
2018-01-29T12:21:47.954Z,69.27
2018-01-29T12:24:15.409Z,68.89
2018-01-29T12:26:42.861Z,69.23
2018-01-29T12:29:10.348Z,68.54
2018-01-29T12:31:37.801Z,68.17
2018-01-29T12:34:05.277Z,68.00
2018-01-29T12:36:32.737Z,67.22
2018-01-29T12:39:00.219Z,67.27
2018-01-29T12:41:27.679Z,67.22
2018-01-29T12:43:55.145Z,67.17
2018-01-29T12:46:22.618Z,66.66
2018-01-29T12:48:50.074Z,66.97
2018-01-29T12:51:17.541Z,66.83
2018-01-29T12:53:45.028Z,67.05
2018-01-29T12:56:12.501Z,67.10
2018-01-29T12:58:39.948Z,67.09
2018-01-29T13:01:07.468Z,67.00
2018-01-29T13:03:34.996Z,66.97
2018-01-29T13:06:02.461Z,66.58
2018-01-29T13:08:29.966Z,66.70
2018-01-29T13:10:57.487Z,66.93
2018-01-29T13:13:24.949Z,66.84
2018-01-29T13:15:52.450Z,66.82
2018-01-29T13:18:19.905Z,67.08
2018-01-29T13:20:47.352Z,67.54
2018-01-29T13:23:14.814Z,67.06
2018-01-29T13:25:42.258Z,67.27
2018-01-29T13:28:09.792Z,67.41
2018-01-29T13:30:37.280Z,67.23
2018-01-29T13:33:04.751Z,67.52
2018-01-29T13:35:32.298Z,67.26
2018-01-29T13:37:59.861Z,67.33
2018-01-29T13:40:27.321Z,67.15
2018-01-29T13:42:54.794Z,67.35
2018-01-29T13:45:22.249Z,67.63
2018-01-29T13:47:49.728Z,67.50
2018-01-29T13:50:17.190Z,67.98
2018-01-29T13:52:44.667Z,67.91
2018-01-29T13:55:12.135Z,67.81
2018-01-29T13:57:39.597Z,68.25
2018-01-29T14:00:07.108Z,68.02
2018-01-29T14:02:34.566Z,68.27
2018-01-29T14:05:02.046Z,68.79
2018-01-29T14:07:29.520Z,68.48
2018-01-29T14:09:57.002Z,68.03
2018-01-29T14:12:24.548Z,68.29
2018-01-29T14:14:52.120Z,68.09
2018-01-29T14:17:19.581Z,67.83
2018-01-29T14:19:47.048Z,67.71
2018-01-29T14:22:14.543Z,67.95
2018-01-29T14:24:42.213Z,68.34
2018-01-29T14:27:09.784Z,68.26
2018-01-29T14:29:37.253Z,68.12
2018-01-29T14:32:04.738Z,68.06
2018-01-29T14:34:32.188Z,68.23
2018-01-29T14:36:59.686Z,68.71
2018-01-29T14:39:27.135Z,68.15
2018-01-29T14:41:54.608Z,68.10
2018-01-29T14:44:22.082Z,67.86
2018-01-29T14:46:49.654Z,68.17
2018-01-29T14:49:17.111Z,67.90
2018-01-29T14:51:44.600Z,68.00
2018-01-29T14:54:12.054Z,68.06
2018-01-29T14:56:39.516Z,68.17
2018-01-29T14:59:06.970Z,67.59
2018-01-29T15:01:34.430Z,67.93
2018-01-29T15:04:01.879Z,68.30
2018-01-29T15:06:29.360Z,68.25
2018-01-29T15:08:56.864Z,68.26
2018-01-29T15:11:24.312Z,68.30
2018-01-29T15:13:51.778Z,68.62
2018-01-29T15:16:19.254Z,68.46
2018-01-29T15:18:46.761Z,68.39
2018-01-29T15:21:14.230Z,68.42
2018-01-29T15:23:41.714Z,68.55
2018-01-29T15:26:09.179Z,68.59
2018-01-29T15:28:36.652Z,68.57
2018-01-29T15:31:04.114Z,69.61
2018-01-29T15:33:31.569Z,69.16
2018-01-29T15:35:59.060Z,69.12
2018-01-29T15:38:26.629Z,68.88
2018-01-29T15:40:54.152Z,69.26
2018-01-29T15:43:21.599Z,69.20
2018-01-29T15:45:49.073Z,69.62
2018-01-29T15:48:16.532Z,69.41
2018-01-29T15:50:44.079Z,70.08
2018-01-29T15:53:11.561Z,69.78
2018-01-29T15:55:39.129Z,69.27
2018-01-29T15:58:06.718Z,69.29
2018-01-29T16:00:34.201Z,69.47
2018-01-29T16:03:01.653Z,69.45
2018-01-29T16:05:29.160Z,69.42
2018-01-29T16:07:56.612Z,69.48
2018-01-29T16:10:24.169Z,69.34
2018-01-29T16:12:51.636Z,69.40
2018-01-29T16:15:19.107Z,69.37
2018-01-29T16:17:46.582Z,70.04
2018-01-29T16:20:14.057Z,69.91
2018-01-29T16:22:41.522Z,69.76
2018-01-29T16:25:09.009Z,69.65
2018-01-29T16:27:36.542Z,69.90
2018-01-29T16:30:04.047Z,69.72
2018-01-29T16:32:31.525Z,69.70
2018-01-29T16:34:58.994Z,69.79
2018-01-29T16:37:26.549Z,69.58
2018-01-29T16:39:54.131Z,69.74
2018-01-29T16:42:21.626Z,69.77
2018-01-29T16:44:49.092Z,69.55
2018-01-29T16:47:16.641Z,69.74
2018-01-29T16:49:44.257Z,69.95
2018-01-29T16:52:11.722Z,69.66
2018-01-29T16:54:39.196Z,70.04
2018-01-29T16:57:06.713Z,69.96
2018-01-29T16:59:34.161Z,69.74
2018-01-29T17:02:01.635Z,69.83
2018-01-29T17:04:29.117Z,69.95
2018-01-29T17:06:56.585Z,69.98
2018-01-29T17:09:24.058Z,69.97
2018-01-29T17:11:51.576Z,69.80
2018-01-29T17:14:19.117Z,69.91
2018-01-29T17:16:46.595Z,69.96
2018-01-29T17:19:14.054Z,69.75
2018-01-29T17:21:41.513Z,69.67
2018-01-29T17:24:09.020Z,69.96
2018-01-29T17:26:36.593Z,69.90
2018-01-29T17:29:04.148Z,70.19
2018-01-29T17:31:31.725Z,69.94
2018-01-29T17:33:59.218Z,69.82
2018-01-29T17:36:26.676Z,69.57
2018-01-29T17:38:54.130Z,69.88
2018-01-29T17:41:21.634Z,69.75
2018-01-29T17:43:49.188Z,69.13
2018-01-29T17:46:16.648Z,69.33
2018-01-29T17:48:44.174Z,69.00
2018-01-29T17:51:11.686Z,69.03
2018-01-29T17:53:39.199Z,68.83
2018-01-29T17:56:06.785Z,68.88
2018-01-29T17:58:34.364Z,68.66
2018-01-29T18:01:01.933Z,68.71
2018-01-29T18:03:29.448Z,68.68
2018-01-29T18:05:56.922Z,68.78
2018-01-29T18:08:24.432Z,68.80
2018-01-29T18:10:51.944Z,68.80
2018-01-29T18:13:19.419Z,68.95
2018-01-29T18:15:46.958Z,68.53
2018-01-29T18:20:48.192Z,68.92
2018-01-29T18:23:15.680Z,68.98
2018-01-29T18:25:43.206Z,68.77
2018-01-29T18:28:10.839Z,68.73
2018-01-29T18:30:38.327Z,68.26
2018-01-29T18:33:06.226Z,68.10
2018-01-29T18:35:33.802Z,68.43
2018-01-29T18:38:01.320Z,68.64
2018-01-29T18:40:28.823Z,68.59
2018-01-29T18:42:56.336Z,68.42
2018-01-29T18:45:23.786Z,68.67
2018-01-29T18:47:51.261Z,67.71
2018-01-29T18:50:18.759Z,67.74
2018-01-29T18:52:46.294Z,67.39
2018-01-29T18:55:13.860Z,67.01
2018-01-29T18:57:41.409Z,66.91
2018-01-29T19:00:08.902Z,67.01
2018-01-29T19:02:37.012Z,67.17
2018-01-29T19:05:04.480Z,67.00
2018-01-29T19:07:32.034Z,67.21
2018-01-29T19:09:59.570Z,67.18
2018-01-29T19:12:27.033Z,66.75
2018-01-29T19:14:54.647Z,66.90
2018-01-29T19:17:22.140Z,66.82
2018-01-29T19:19:49.607Z,66.80
2018-01-29T19:22:17.116Z,66.97
2018-01-29T19:24:44.590Z,66.86
2018-01-29T19:27:12.109Z,66.86
2018-01-29T19:29:39.656Z,67.31
2018-01-29T19:32:07.288Z,66.54
2018-01-29T19:34:34.804Z,66.56
2018-01-29T19:37:02.505Z,66.85
2018-01-29T19:39:30.009Z,66.41
2018-01-29T19:41:57.571Z,66.17
2018-01-29T19:44:25.086Z,66.28
2018-01-29T19:46:52.553Z,65.98
2018-01-29T19:49:20.061Z,66.03
2018-01-29T19:51:47.543Z,66.25
2018-01-29T19:54:15.049Z,65.77
2018-01-29T19:56:42.590Z,65.77
2018-01-29T19:59:10.161Z,65.93
2018-01-29T20:01:37.678Z,66.34
2018-01-29T20:04:05.840Z,66.58
2018-01-29T20:06:33.699Z,68.09
2018-01-29T20:09:01.181Z,70.50
2018-01-29T20:11:28.637Z,71.29
2018-01-29T20:13:56.144Z,72.47
2018-01-29T20:16:23.644Z,71.77
2018-01-29T20:18:51.269Z,73.60
2018-01-29T20:21:18.840Z,74.00
2018-01-29T20:23:46.379Z,73.53
2018-01-29T20:26:13.838Z,73.58
2018-01-29T20:28:41.409Z,74.18
2018-01-29T20:31:08.880Z,74.02
2018-01-29T20:33:36.407Z,73.65
2018-01-29T20:36:03.960Z,73.52
2018-01-29T20:38:31.508Z,72.87
2018-01-29T20:40:59.044Z,73.00
2018-01-29T20:43:26.578Z,72.58
2018-01-29T20:45:54.040Z,72.49
2018-01-29T20:48:21.510Z,72.34
2018-01-29T20:50:49.023Z,72.42
2018-01-29T20:53:16.477Z,72.09
2018-01-29T20:55:43.968Z,72.51
2018-01-29T20:58:11.532Z,71.87
2018-01-29T21:00:39.079Z,70.99
2018-01-29T21:03:06.652Z,71.37
2018-01-29T21:05:34.169Z,71.04
2018-01-29T21:08:01.702Z,70.68
2018-01-29T21:10:29.271Z,70.81
2018-01-29T21:12:56.736Z,71.70
2018-01-29T21:15:24.254Z,71.85
2018-01-29T21:17:51.753Z,71.81
2018-01-29T21:20:19.276Z,72.09
2018-01-29T21:22:46.771Z,72.38
2018-01-29T21:25:14.294Z,72.62
2018-01-29T21:27:41.811Z,72.46
2018-01-29T21:30:09.411Z,73.29
2018-01-29T21:32:36.900Z,73.38
2018-01-29T21:35:04.477Z,73.72
2018-01-29T21:37:31.971Z,74.03
2018-01-29T21:39:59.483Z,75.25
2018-01-29T21:42:26.930Z,75.43
2018-01-29T21:44:54.403Z,75.83
2018-01-29T21:47:21.915Z,76.25
2018-01-29T21:49:49.421Z,76.17
2018-01-29T21:52:16.929Z,76.41
2018-01-29T21:54:44.424Z,76.74
2018-01-29T21:57:13.744Z,76.89
2018-01-29T21:59:41.256Z,76.77
2018-01-29T22:02:08.819Z,76.35
2018-01-29T22:04:36.448Z,76.62
2018-01-29T22:07:03.967Z,76.71
2018-01-29T22:09:31.465Z,76.20
2018-01-29T22:11:58.938Z,75.79
2018-01-29T22:14:26.462Z,75.51
2018-01-29T22:16:53.979Z,75.30
2018-01-29T22:19:21.473Z,75.30
2018-01-29T22:21:49.068Z,75.35
2018-01-29T22:24:16.567Z,75.09
2018-01-29T22:26:44.031Z,75.26
2018-01-29T22:29:11.501Z,75.05
2018-01-29T22:31:39.032Z,75.65
2018-01-29T22:34:06.666Z,75.03
2018-01-29T22:36:34.168Z,75.41
2018-01-29T22:39:01.632Z,75.07
2018-01-29T22:41:29.095Z,76.03
2018-01-29T22:43:56.707Z,79.56
2018-01-29T22:46:24.245Z,82.79
2018-01-29T22:48:51.693Z,85.87
2018-01-29T22:51:19.203Z,88.07
2018-01-29T22:53:46.690Z,88.31
2018-01-29T22:56:14.156Z,86.80
2018-01-29T22:58:41.634Z,86.68
2018-01-29T23:01:09.102Z,87.27
2018-01-29T23:03:36.641Z,86.78
2018-01-29T23:06:04.097Z,86.70
2018-01-29T23:08:31.536Z,87.64
2018-01-29T23:10:59.034Z,87.75
2018-01-29T23:13:26.866Z,87.67
2018-01-29T23:15:54.338Z,88.00
2018-01-29T23:18:21.887Z,88.42
2018-01-29T23:20:49.325Z,89.75
2018-01-29T23:23:16.817Z,89.09
2018-01-29T23:25:44.304Z,89.51
2018-01-29T23:28:11.761Z,89.62
2018-01-29T23:30:39.216Z,89.64
2018-01-29T23:33:06.770Z,89.44
2018-01-29T23:35:34.233Z,89.78
2018-01-29T23:38:01.700Z,89.70
2018-01-29T23:40:29.155Z,89.35
2018-01-29T23:42:56.633Z,89.94
2018-01-29T23:45:24.097Z,89.67
2018-01-29T23:47:51.578Z,89.35
2018-01-29T23:50:19.062Z,89.43
2018-01-29T23:52:46.546Z,89.28
2018-01-29T23:55:13.983Z,89.17
2018-01-29T23:57:41.444Z,89.10
